sensor_id;sensor_type;location;lat;lon;timestamp;P1;durP1;ratioP1;P2;durP2;ratioP2
50281;SDS011;36176;51.506;10.272;2024-01-10T00:00:24;26.40;;;16.80;;
50281;SDS011;36176;51.506;10.272;2024-01-10T00:02:51;26.03;;;16.73;;
50281;SDS011;36176;51.506;10.272;2024-01-10T00:05:18;26.53;;;17.80;;
50281;SDS011;36176;51.506;10.272;2024-01-10T00:07:46;27.87;;;17.90;;
50281;SDS011;36176;51.506;10.272;2024-01-10T00:10:14;27.17;;;17.40;;
50281;SDS011;36176;51.506;10.272;2024-01-10T00:12:41;27.63;;;17.70;;
50281;SDS011;36176;51.506;10.272;2024-01-10T00:15:09;28.93;;;18.30;;
50281;SDS011;36176;51.506;10.272;2024-01-10T00:17:36;29.00;;;18.30;;
50281;SDS011;36176;51.506;10.272;2024-01-10T00:20:03;29.57;;;18.03;;
50281;SDS011;36176;51.506;10.272;2024-01-10T00:22:31;26.23;;;17.00;;
50281;SDS011;36176;51.506;10.272;2024-01-10T00:24:58;31.03;;;19.07;;
50281;SDS011;36176;51.506;10.272;2024-01-10T00:27:25;28.83;;;18.57;;
50281;SDS011;36176;51.506;10.272;2024-01-10T00:29:53;29.60;;;19.33;;
50281;SDS011;36176;51.506;10.272;2024-01-10T00:32:20;32.77;;;20.43;;
50281;SDS011;36176;51.506;10.272;2024-01-10T00:34:47;27.67;;;17.00;;
50281;SDS011;36176;51.506;10.272;2024-01-10T00:37:14;31.07;;;19.93;;
50281;SDS011;36176;51.506;10.272;2024-01-10T00:39:41;30.07;;;18.90;;
50281;SDS011;36176;51.506;10.272;2024-01-10T00:42:08;29.70;;;19.17;;
50281;SDS011;36176;51.506;10.272;2024-01-10T00:44:36;32.20;;;20.10;;
50281;SDS011;36176;51.506;10.272;2024-01-10T00:47:03;33.00;;;19.33;;
50281;SDS011;36176;51.506;10.272;2024-01-10T00:49:30;30.20;;;18.40;;
50281;SDS011;36176;51.506;10.272;2024-01-10T00:51:57;30.37;;;19.67;;
50281;SDS011;36176;51.506;10.272;2024-01-10T00:54:24;32.30;;;19.67;;
50281;SDS011;36176;51.506;10.272;2024-01-10T00:56:51;30.33;;;19.20;;
50281;SDS011;36176;51.506;10.272;2024-01-10T00:59:18;31.47;;;18.63;;
50281;SDS011;36176;51.506;10.272;2024-01-10T01:01:45;30.37;;;18.67;;
50281;SDS011;36176;51.506;10.272;2024-01-10T01:04:12;31.17;;;19.27;;
50281;SDS011;36176;51.506;10.272;2024-01-10T01:06:39;29.70;;;18.70;;
50281;SDS011;36176;51.506;10.272;2024-01-10T01:09:06;29.93;;;18.67;;
50281;SDS011;36176;51.506;10.272;2024-01-10T01:11:34;32.23;;;19.63;;
50281;SDS011;36176;51.506;10.272;2024-01-10T01:14:01;29.87;;;18.87;;
50281;SDS011;36176;51.506;10.272;2024-01-10T01:16:28;28.97;;;18.43;;
50281;SDS011;36176;51.506;10.272;2024-01-10T01:18:55;28.20;;;18.23;;
50281;SDS011;36176;51.506;10.272;2024-01-10T01:21:22;28.53;;;17.83;;
50281;SDS011;36176;51.506;10.272;2024-01-10T01:23:49;28.53;;;17.73;;
50281;SDS011;36176;51.506;10.272;2024-01-10T01:26:17;29.87;;;17.87;;
50281;SDS011;36176;51.506;10.272;2024-01-10T01:28:44;28.77;;;18.87;;
50281;SDS011;36176;51.506;10.272;2024-01-10T01:31:11;35.13;;;22.13;;
50281;SDS011;36176;51.506;10.272;2024-01-10T01:33:38;35.37;;;22.33;;
50281;SDS011;36176;51.506;10.272;2024-01-10T01:36:06;33.73;;;21.33;;
50281;SDS011;36176;51.506;10.272;2024-01-10T01:38:33;34.20;;;21.87;;
50281;SDS011;36176;51.506;10.272;2024-01-10T01:41:03;37.70;;;23.40;;
50281;SDS011;36176;51.506;10.272;2024-01-10T01:43:32;36.60;;;23.27;;
50281;SDS011;36176;51.506;10.272;2024-01-10T01:45:59;38.57;;;24.17;;
50281;SDS011;36176;51.506;10.272;2024-01-10T01:48:26;35.47;;;21.87;;
50281;SDS011;36176;51.506;10.272;2024-01-10T01:50:56;38.80;;;23.63;;
50281;SDS011;36176;51.506;10.272;2024-01-10T01:53:26;38.20;;;22.70;;
50281;SDS011;36176;51.506;10.272;2024-01-10T01:55:55;38.17;;;22.87;;
50281;SDS011;36176;51.506;10.272;2024-01-10T01:58:22;36.03;;;22.87;;
50281;SDS011;36176;51.506;10.272;2024-01-10T02:00:52;39.63;;;24.53;;
50281;SDS011;36176;51.506;10.272;2024-01-10T02:03:20;36.33;;;23.23;;
50281;SDS011;36176;51.506;10.272;2024-01-10T02:05:48;35.73;;;21.53;;
50281;SDS011;36176;51.506;10.272;2024-01-10T02:08:15;35.43;;;21.87;;
50281;SDS011;36176;51.506;10.272;2024-01-10T02:10:42;35.23;;;21.10;;
50281;SDS011;36176;51.506;10.272;2024-01-10T02:13:10;33.00;;;21.00;;
50281;SDS011;36176;51.506;10.272;2024-01-10T02:15:37;34.47;;;21.37;;
50281;SDS011;36176;51.506;10.272;2024-01-10T02:18:05;34.27;;;20.43;;
50281;SDS011;36176;51.506;10.272;2024-01-10T02:20:32;35.30;;;21.73;;
50281;SDS011;36176;51.506;10.272;2024-01-10T02:22:59;34.63;;;21.20;;
50281;SDS011;36176;51.506;10.272;2024-01-10T02:25:27;34.53;;;22.30;;
50281;SDS011;36176;51.506;10.272;2024-01-10T02:27:54;34.50;;;21.07;;
50281;SDS011;36176;51.506;10.272;2024-01-10T02:30:21;37.27;;;22.77;;
50281;SDS011;36176;51.506;10.272;2024-01-10T02:32:48;37.07;;;23.30;;
50281;SDS011;36176;51.506;10.272;2024-01-10T02:35:15;37.10;;;22.37;;
50281;SDS011;36176;51.506;10.272;2024-01-10T02:37:42;37.00;;;21.87;;
50281;SDS011;36176;51.506;10.272;2024-01-10T02:40:10;35.03;;;22.43;;
50281;SDS011;36176;51.506;10.272;2024-01-10T02:42:37;35.20;;;21.93;;
50281;SDS011;36176;51.506;10.272;2024-01-10T02:45:11;32.30;;;20.23;;
50281;SDS011;36176;51.506;10.272;2024-01-10T02:47:38;33.30;;;20.23;;
50281;SDS011;36176;51.506;10.272;2024-01-10T02:50:06;33.03;;;19.40;;
50281;SDS011;36176;51.506;10.272;2024-01-10T02:52:33;32.77;;;20.30;;
50281;SDS011;36176;51.506;10.272;2024-01-10T02:55:01;33.67;;;20.13;;
50281;SDS011;36176;51.506;10.272;2024-01-10T02:57:28;30.70;;;19.30;;
50281;SDS011;36176;51.506;10.272;2024-01-10T02:59:55;32.37;;;19.37;;
50281;SDS011;36176;51.506;10.272;2024-01-10T03:02:22;35.77;;;20.53;;
50281;SDS011;36176;51.506;10.272;2024-01-10T03:04:49;34.17;;;20.47;;
50281;SDS011;36176;51.506;10.272;2024-01-10T03:07:17;36.70;;;21.77;;
50281;SDS011;36176;51.506;10.272;2024-01-10T03:09:44;32.40;;;20.70;;
50281;SDS011;36176;51.506;10.272;2024-01-10T03:12:11;31.83;;;19.63;;
50281;SDS011;36176;51.506;10.272;2024-01-10T03:14:38;33.97;;;20.87;;
50281;SDS011;36176;51.506;10.272;2024-01-10T03:17:05;33.67;;;20.80;;
50281;SDS011;36176;51.506;10.272;2024-01-10T03:19:34;37.30;;;22.80;;
50281;SDS011;36176;51.506;10.272;2024-01-10T03:22:01;38.47;;;22.47;;
50281;SDS011;36176;51.506;10.272;2024-01-10T03:24:29;35.63;;;22.10;;
50281;SDS011;36176;51.506;10.272;2024-01-10T03:26:56;36.37;;;21.67;;
50281;SDS011;36176;51.506;10.272;2024-01-10T03:29:23;36.03;;;22.73;;
50281;SDS011;36176;51.506;10.272;2024-01-10T03:31:50;39.40;;;26.20;;
50281;SDS011;36176;51.506;10.272;2024-01-10T03:34:17;40.57;;;25.13;;
50281;SDS011;36176;51.506;10.272;2024-01-10T03:36:44;43.70;;;24.40;;
50281;SDS011;36176;51.506;10.272;2024-01-10T03:39:11;35.03;;;21.70;;
50281;SDS011;36176;51.506;10.272;2024-01-10T03:41:38;39.17;;;24.20;;
50281;SDS011;36176;51.506;10.272;2024-01-10T03:44:05;34.57;;;20.47;;
50281;SDS011;36176;51.506;10.272;2024-01-10T03:46:32;32.97;;;19.70;;
50281;SDS011;36176;51.506;10.272;2024-01-10T03:49:00;33.27;;;20.67;;
50281;SDS011;36176;51.506;10.272;2024-01-10T03:51:27;32.40;;;19.93;;
50281;SDS011;36176;51.506;10.272;2024-01-10T03:53:54;35.03;;;21.63;;
50281;SDS011;36176;51.506;10.272;2024-01-10T03:56:21;34.23;;;21.53;;
50281;SDS011;36176;51.506;10.272;2024-01-10T03:58:48;34.17;;;20.33;;
50281;SDS011;36176;51.506;10.272;2024-01-10T04:01:15;34.00;;;20.77;;
50281;SDS011;36176;51.506;10.272;2024-01-10T04:03:43;32.87;;;20.77;;
50281;SDS011;36176;51.506;10.272;2024-01-10T04:06:10;37.43;;;21.80;;
50281;SDS011;36176;51.506;10.272;2024-01-10T04:08:37;32.10;;;19.73;;
50281;SDS011;36176;51.506;10.272;2024-01-10T04:11:05;32.43;;;19.43;;
50281;SDS011;36176;51.506;10.272;2024-01-10T04:13:32;32.80;;;19.63;;
50281;SDS011;36176;51.506;10.272;2024-01-10T04:15:59;35.17;;;21.50;;
50281;SDS011;36176;51.506;10.272;2024-01-10T04:18:26;32.40;;;20.50;;
50281;SDS011;36176;51.506;10.272;2024-01-10T04:20:53;32.43;;;19.40;;
50281;SDS011;36176;51.506;10.272;2024-01-10T04:23:21;36.90;;;20.20;;
50281;SDS011;36176;51.506;10.272;2024-01-10T04:25:48;33.87;;;20.03;;
50281;SDS011;36176;51.506;10.272;2024-01-10T04:28:15;31.10;;;19.40;;
50281;SDS011;36176;51.506;10.272;2024-01-10T04:30:42;31.03;;;19.33;;
50281;SDS011;36176;51.506;10.272;2024-01-10T04:33:10;27.83;;;18.30;;
50281;SDS011;36176;51.506;10.272;2024-01-10T04:35:37;35.47;;;21.63;;
50281;SDS011;36176;51.506;10.272;2024-01-10T04:38:04;35.90;;;21.07;;
50281;SDS011;36176;51.506;10.272;2024-01-10T04:40:32;32.80;;;19.33;;
50281;SDS011;36176;51.506;10.272;2024-01-10T04:42:59;36.20;;;22.07;;
50281;SDS011;36176;51.506;10.272;2024-01-10T04:45:26;36.13;;;21.50;;
50281;SDS011;36176;51.506;10.272;2024-01-10T04:47:53;39.23;;;22.67;;
50281;SDS011;36176;51.506;10.272;2024-01-10T04:50:21;40.77;;;23.17;;
50281;SDS011;36176;51.506;10.272;2024-01-10T04:52:48;36.20;;;21.67;;
50281;SDS011;36176;51.506;10.272;2024-01-10T04:55:15;36.93;;;22.40;;
50281;SDS011;36176;51.506;10.272;2024-01-10T04:57:42;35.70;;;21.20;;
50281;SDS011;36176;51.506;10.272;2024-01-10T05:00:10;31.03;;;19.30;;
50281;SDS011;36176;51.506;10.272;2024-01-10T05:02:37;31.07;;;19.60;;
50281;SDS011;36176;51.506;10.272;2024-01-10T05:05:05;33.27;;;20.60;;
50281;SDS011;36176;51.506;10.272;2024-01-10T05:07:32;32.17;;;20.07;;
50281;SDS011;36176;51.506;10.272;2024-01-10T05:09:59;32.77;;;20.40;;
50281;SDS011;36176;51.506;10.272;2024-01-10T05:12:27;34.63;;;20.13;;
50281;SDS011;36176;51.506;10.272;2024-01-10T05:14:54;34.13;;;19.70;;
50281;SDS011;36176;51.506;10.272;2024-01-10T05:17:21;31.93;;;19.33;;
50281;SDS011;36176;51.506;10.272;2024-01-10T05:19:49;30.07;;;18.67;;
50281;SDS011;36176;51.506;10.272;2024-01-10T05:22:16;32.13;;;20.17;;
50281;SDS011;36176;51.506;10.272;2024-01-10T05:24:44;29.37;;;17.47;;
50281;SDS011;36176;51.506;10.272;2024-01-10T05:27:11;32.83;;;19.53;;
50281;SDS011;36176;51.506;10.272;2024-01-10T05:29:38;31.13;;;19.90;;
50281;SDS011;36176;51.506;10.272;2024-01-10T05:32:05;34.53;;;20.87;;
50281;SDS011;36176;51.506;10.272;2024-01-10T05:34:32;38.27;;;23.60;;
50281;SDS011;36176;51.506;10.272;2024-01-10T05:36:59;33.37;;;20.70;;
50281;SDS011;36176;51.506;10.272;2024-01-10T05:39:27;34.40;;;20.97;;
50281;SDS011;36176;51.506;10.272;2024-01-10T05:41:54;36.40;;;22.13;;
50281;SDS011;36176;51.506;10.272;2024-01-10T05:44:21;34.33;;;21.23;;
50281;SDS011;36176;51.506;10.272;2024-01-10T05:46:48;41.77;;;25.03;;
50281;SDS011;36176;51.506;10.272;2024-01-10T05:49:15;40.50;;;23.37;;
50281;SDS011;36176;51.506;10.272;2024-01-10T05:51:46;42.23;;;23.33;;
50281;SDS011;36176;51.506;10.272;2024-01-10T05:54:13;43.67;;;25.20;;
50281;SDS011;36176;51.506;10.272;2024-01-10T05:56:40;44.53;;;25.90;;
50281;SDS011;36176;51.506;10.272;2024-01-10T05:59:07;42.00;;;25.47;;
50281;SDS011;36176;51.506;10.272;2024-01-10T06:01:34;40.77;;;25.40;;
50281;SDS011;36176;51.506;10.272;2024-01-10T06:04:01;39.00;;;23.50;;
50281;SDS011;36176;51.506;10.272;2024-01-10T06:06:28;38.50;;;24.27;;
50281;SDS011;36176;51.506;10.272;2024-01-10T06:08:55;36.90;;;23.27;;
50281;SDS011;36176;51.506;10.272;2024-01-10T06:11:22;38.43;;;23.13;;
50281;SDS011;36176;51.506;10.272;2024-01-10T06:13:50;37.67;;;23.33;;
50281;SDS011;36176;51.506;10.272;2024-01-10T06:16:23;38.17;;;23.67;;
50281;SDS011;36176;51.506;10.272;2024-01-10T06:18:50;38.73;;;23.17;;
50281;SDS011;36176;51.506;10.272;2024-01-10T06:21:17;43.97;;;25.67;;
50281;SDS011;36176;51.506;10.272;2024-01-10T06:23:44;38.40;;;24.50;;
50281;SDS011;36176;51.506;10.272;2024-01-10T06:26:12;40.90;;;24.07;;
50281;SDS011;36176;51.506;10.272;2024-01-10T06:28:39;39.30;;;24.43;;
50281;SDS011;36176;51.506;10.272;2024-01-10T06:31:06;40.90;;;25.10;;
50281;SDS011;36176;51.506;10.272;2024-01-10T06:33:37;37.43;;;23.50;;
50281;SDS011;36176;51.506;10.272;2024-01-10T06:36:05;35.90;;;21.63;;
50281;SDS011;36176;51.506;10.272;2024-01-10T06:38:32;32.03;;;20.83;;
50281;SDS011;36176;51.506;10.272;2024-01-10T06:41:00;36.47;;;21.63;;
50281;SDS011;36176;51.506;10.272;2024-01-10T06:43:33;37.27;;;22.70;;
50281;SDS011;36176;51.506;10.272;2024-01-10T06:46:01;32.50;;;20.43;;
50281;SDS011;36176;51.506;10.272;2024-01-10T06:48:28;38.53;;;23.03;;
50281;SDS011;36176;51.506;10.272;2024-01-10T06:50:56;35.70;;;22.30;;
50281;SDS011;36176;51.506;10.272;2024-01-10T06:53:23;39.70;;;23.77;;
50281;SDS011;36176;51.506;10.272;2024-01-10T06:55:50;45.10;;;26.57;;
50281;SDS011;36176;51.506;10.272;2024-01-10T06:58:18;41.97;;;25.00;;
50281;SDS011;36176;51.506;10.272;2024-01-10T07:00:45;39.77;;;24.73;;
50281;SDS011;36176;51.506;10.272;2024-01-10T07:03:12;39.90;;;24.07;;
50281;SDS011;36176;51.506;10.272;2024-01-10T07:05:39;38.67;;;23.70;;
50281;SDS011;36176;51.506;10.272;2024-01-10T07:08:06;39.53;;;24.30;;
50281;SDS011;36176;51.506;10.272;2024-01-10T07:10:33;39.43;;;22.90;;
50281;SDS011;36176;51.506;10.272;2024-01-10T07:13:00;40.53;;;24.87;;
50281;SDS011;36176;51.506;10.272;2024-01-10T07:15:28;37.90;;;22.53;;
50281;SDS011;36176;51.506;10.272;2024-01-10T07:17:55;39.60;;;23.83;;
50281;SDS011;36176;51.506;10.272;2024-01-10T07:20:22;37.83;;;23.00;;
50281;SDS011;36176;51.506;10.272;2024-01-10T07:22:50;38.93;;;23.77;;
50281;SDS011;36176;51.506;10.272;2024-01-10T07:25:17;40.20;;;23.90;;
50281;SDS011;36176;51.506;10.272;2024-01-10T07:27:44;34.47;;;22.80;;
50281;SDS011;36176;51.506;10.272;2024-01-10T07:30:11;37.10;;;23.17;;
50281;SDS011;36176;51.506;10.272;2024-01-10T07:32:42;35.47;;;22.20;;
50281;SDS011;36176;51.506;10.272;2024-01-10T07:35:12;35.73;;;21.37;;
50281;SDS011;36176;51.506;10.272;2024-01-10T07:37:40;39.50;;;23.43;;
50281;SDS011;36176;51.506;10.272;2024-01-10T07:40:08;44.17;;;26.43;;
50281;SDS011;36176;51.506;10.272;2024-01-10T07:42:36;51.63;;;30.70;;
50281;SDS011;36176;51.506;10.272;2024-01-10T07:45:04;45.80;;;26.83;;
50281;SDS011;36176;51.506;10.272;2024-01-10T07:47:32;46.30;;;28.43;;
50281;SDS011;36176;51.506;10.272;2024-01-10T07:50:00;53.17;;;30.40;;
50281;SDS011;36176;51.506;10.272;2024-01-10T07:52:27;44.87;;;28.40;;
50281;SDS011;36176;51.506;10.272;2024-01-10T07:54:54;49.13;;;29.63;;
50281;SDS011;36176;51.506;10.272;2024-01-10T07:57:21;47.70;;;29.40;;
50281;SDS011;36176;51.506;10.272;2024-01-10T07:59:48;51.53;;;31.60;;
50281;SDS011;36176;51.506;10.272;2024-01-10T08:02:15;57.10;;;33.90;;
50281;SDS011;36176;51.506;10.272;2024-01-10T08:04:43;48.57;;;29.63;;
50281;SDS011;36176;51.506;10.272;2024-01-10T08:07:10;45.70;;;27.90;;
50281;SDS011;36176;51.506;10.272;2024-01-10T08:09:37;46.53;;;29.17;;
50281;SDS011;36176;51.506;10.272;2024-01-10T08:12:04;45.17;;;29.37;;
50281;SDS011;36176;51.506;10.272;2024-01-10T08:14:32;47.47;;;28.60;;
50281;SDS011;36176;51.506;10.272;2024-01-10T08:16:59;47.87;;;30.67;;
50281;SDS011;36176;51.506;10.272;2024-01-10T08:19:26;47.17;;;29.30;;
50281;SDS011;36176;51.506;10.272;2024-01-10T08:21:54;46.33;;;29.30;;
50281;SDS011;36176;51.506;10.272;2024-01-10T08:24:22;50.37;;;31.20;;
50281;SDS011;36176;51.506;10.272;2024-01-10T08:26:49;47.93;;;31.63;;
50281;SDS011;36176;51.506;10.272;2024-01-10T08:29:16;51.73;;;30.90;;
50281;SDS011;36176;51.506;10.272;2024-01-10T08:31:45;52.37;;;31.67;;
50281;SDS011;36176;51.506;10.272;2024-01-10T08:34:12;48.53;;;30.67;;
50281;SDS011;36176;51.506;10.272;2024-01-10T08:36:40;46.03;;;28.97;;
50281;SDS011;36176;51.506;10.272;2024-01-10T08:39:07;45.00;;;28.13;;
50281;SDS011;36176;51.506;10.272;2024-01-10T08:41:34;44.77;;;29.10;;
50281;SDS011;36176;51.506;10.272;2024-01-10T08:44:01;47.00;;;29.10;;
50281;SDS011;36176;51.506;10.272;2024-01-10T08:46:28;45.17;;;29.10;;
50281;SDS011;36176;51.506;10.272;2024-01-10T08:48:55;43.40;;;28.33;;
50281;SDS011;36176;51.506;10.272;2024-01-10T08:51:23;47.20;;;31.00;;
50281;SDS011;36176;51.506;10.272;2024-01-10T08:53:50;45.37;;;30.13;;
50281;SDS011;36176;51.506;10.272;2024-01-10T08:56:17;41.30;;;28.53;;
50281;SDS011;36176;51.506;10.272;2024-01-10T08:58:44;45.30;;;29.77;;
50281;SDS011;36176;51.506;10.272;2024-01-10T09:01:12;42.40;;;29.13;;
50281;SDS011;36176;51.506;10.272;2024-01-10T09:03:39;49.27;;;32.40;;
50281;SDS011;36176;51.506;10.272;2024-01-10T09:06:06;47.00;;;32.40;;
50281;SDS011;36176;51.506;10.272;2024-01-10T09:08:38;42.67;;;29.87;;
50281;SDS011;36176;51.506;10.272;2024-01-10T09:11:05;44.53;;;31.43;;
50281;SDS011;36176;51.506;10.272;2024-01-10T09:13:33;47.83;;;33.00;;
50281;SDS011;36176;51.506;10.272;2024-01-10T09:16:00;42.93;;;31.37;;
50281;SDS011;36176;51.506;10.272;2024-01-10T09:18:27;45.10;;;31.80;;
50281;SDS011;36176;51.506;10.272;2024-01-10T09:20:55;46.77;;;33.37;;
50281;SDS011;36176;51.506;10.272;2024-01-10T09:23:23;44.37;;;31.40;;
50281;SDS011;36176;51.506;10.272;2024-01-10T09:25:51;44.87;;;32.27;;
50281;SDS011;36176;51.506;10.272;2024-01-10T09:28:18;42.67;;;32.00;;
50281;SDS011;36176;51.506;10.272;2024-01-10T09:30:45;42.03;;;33.30;;
50281;SDS011;36176;51.506;10.272;2024-01-10T09:33:13;44.03;;;34.13;;
50281;SDS011;36176;51.506;10.272;2024-01-10T09:35:41;42.23;;;33.27;;
50281;SDS011;36176;51.506;10.272;2024-01-10T09:38:08;42.07;;;33.13;;
50281;SDS011;36176;51.506;10.272;2024-01-10T09:40:35;44.13;;;34.63;;
50281;SDS011;36176;51.506;10.272;2024-01-10T09:43:03;43.00;;;34.63;;
50281;SDS011;36176;51.506;10.272;2024-01-10T09:45:32;46.73;;;35.77;;
50281;SDS011;36176;51.506;10.272;2024-01-10T09:48:03;43.67;;;35.60;;
50281;SDS011;36176;51.506;10.272;2024-01-10T09:50:31;45.03;;;34.97;;
50281;SDS011;36176;51.506;10.272;2024-01-10T09:53:05;44.20;;;34.67;;
50281;SDS011;36176;51.506;10.272;2024-01-10T09:55:34;43.80;;;35.03;;
50281;SDS011;36176;51.506;10.272;2024-01-10T09:58:04;45.47;;;35.00;;
50281;SDS011;36176;51.506;10.272;2024-01-10T10:00:33;42.50;;;35.10;;
50281;SDS011;36176;51.506;10.272;2024-01-10T10:03:07;43.97;;;34.80;;
50281;SDS011;36176;51.506;10.272;2024-01-10T10:05:35;40.57;;;33.10;;
50281;SDS011;36176;51.506;10.272;2024-01-10T10:08:06;38.23;;;31.90;;
50281;SDS011;36176;51.506;10.272;2024-01-10T10:10:34;43.40;;;32.40;;
50281;SDS011;36176;51.506;10.272;2024-01-10T10:13:01;38.60;;;32.17;;
50281;SDS011;36176;51.506;10.272;2024-01-10T10:15:29;38.70;;;32.40;;
50281;SDS011;36176;51.506;10.272;2024-01-10T10:17:56;39.83;;;31.77;;
50281;SDS011;36176;51.506;10.272;2024-01-10T10:20:27;36.27;;;31.03;;
50281;SDS011;36176;51.506;10.272;2024-01-10T10:23:02;37.20;;;31.47;;
50281;SDS011;36176;51.506;10.272;2024-01-10T10:25:32;38.97;;;32.63;;
50281;SDS011;36176;51.506;10.272;2024-01-10T10:28:02;39.00;;;33.47;;
50281;SDS011;36176;51.506;10.272;2024-01-10T10:30:31;38.23;;;30.63;;
50281;SDS011;36176;51.506;10.272;2024-01-10T10:32:59;37.13;;;30.97;;
50281;SDS011;36176;51.506;10.272;2024-01-10T10:35:27;34.23;;;29.70;;
50281;SDS011;36176;51.506;10.272;2024-01-10T10:38:07;33.83;;;28.93;;
50281;SDS011;36176;51.506;10.272;2024-01-10T10:40:35;34.80;;;30.23;;
50281;SDS011;36176;51.506;10.272;2024-01-10T10:43:02;33.37;;;28.93;;
50281;SDS011;36176;51.506;10.272;2024-01-10T10:45:31;34.17;;;27.93;;
50281;SDS011;36176;51.506;10.272;2024-01-10T10:48:01;33.10;;;27.83;;
50281;SDS011;36176;51.506;10.272;2024-01-10T10:50:33;33.07;;;27.70;;
50281;SDS011;36176;51.506;10.272;2024-01-10T10:53:05;30.03;;;26.10;;
50281;SDS011;36176;51.506;10.272;2024-01-10T10:55:33;28.90;;;23.80;;
50281;SDS011;36176;51.506;10.272;2024-01-10T10:58:04;30.63;;;27.10;;
50281;SDS011;36176;51.506;10.272;2024-01-10T11:00:38;31.57;;;27.23;;
50281;SDS011;36176;51.506;10.272;2024-01-10T11:03:09;40.03;;;31.87;;
50281;SDS011;36176;51.506;10.272;2024-01-10T11:05:40;37.37;;;32.27;;
50281;SDS011;36176;51.506;10.272;2024-01-10T11:08:12;37.97;;;30.53;;
50281;SDS011;36176;51.506;10.272;2024-01-10T11:10:44;30.80;;;23.77;;
50281;SDS011;36176;51.506;10.272;2024-01-10T11:13:26;35.63;;;30.83;;
50281;SDS011;36176;51.506;10.272;2024-01-10T11:16:11;33.20;;;27.13;;
50281;SDS011;36176;51.506;10.272;2024-01-10T11:18:54;31.73;;;26.87;;
50281;SDS011;36176;51.506;10.272;2024-01-10T11:24:21;28.13;;;22.03;;
50281;SDS011;36176;51.506;10.272;2024-01-10T11:26:57;25.93;;;21.33;;
50281;SDS011;36176;51.506;10.272;2024-01-10T11:29:33;27.10;;;20.63;;
50281;SDS011;36176;51.506;10.272;2024-01-10T11:32:04;24.30;;;19.67;;
50281;SDS011;36176;51.506;10.272;2024-01-10T11:34:57;22.33;;;17.87;;
50281;SDS011;36176;51.506;10.272;2024-01-10T11:37:38;25.60;;;17.93;;
50281;SDS011;36176;51.506;10.272;2024-01-10T11:40:09;22.00;;;17.20;;
50281;SDS011;36176;51.506;10.272;2024-01-10T11:42:41;23.60;;;17.17;;
50281;SDS011;36176;51.506;10.272;2024-01-10T11:47:57;21.17;;;16.13;;
50281;SDS011;36176;51.506;10.272;2024-01-10T11:50:24;20.47;;;16.27;;
50281;SDS011;36176;51.506;10.272;2024-01-10T11:52:53;23.33;;;17.53;;
50281;SDS011;36176;51.506;10.272;2024-01-10T11:58:14;23.40;;;16.37;;
50281;SDS011;36176;51.506;10.272;2024-01-10T12:00:43;21.13;;;15.77;;
50281;SDS011;36176;51.506;10.272;2024-01-10T12:03:14;18.67;;;14.90;;
50281;SDS011;36176;51.506;10.272;2024-01-10T12:05:42;21.73;;;15.77;;
50281;SDS011;36176;51.506;10.272;2024-01-10T12:08:09;20.73;;;15.63;;
50281;SDS011;36176;51.506;10.272;2024-01-10T12:10:36;22.73;;;16.73;;
50281;SDS011;36176;51.506;10.272;2024-01-10T12:13:03;20.07;;;14.87;;
50281;SDS011;36176;51.506;10.272;2024-01-10T12:15:31;19.57;;;14.43;;
50281;SDS011;36176;51.506;10.272;2024-01-10T12:17:58;19.60;;;13.97;;
50281;SDS011;36176;51.506;10.272;2024-01-10T12:20:25;18.13;;;13.87;;
50281;SDS011;36176;51.506;10.272;2024-01-10T12:22:52;17.27;;;12.27;;
50281;SDS011;36176;51.506;10.272;2024-01-10T12:25:19;17.50;;;12.93;;
50281;SDS011;36176;51.506;10.272;2024-01-10T12:27:47;17.43;;;12.23;;
50281;SDS011;36176;51.506;10.272;2024-01-10T12:30:15;16.00;;;12.70;;
50281;SDS011;36176;51.506;10.272;2024-01-10T12:32:42;15.43;;;12.13;;
50281;SDS011;36176;51.506;10.272;2024-01-10T12:35:10;17.43;;;12.83;;
50281;SDS011;36176;51.506;10.272;2024-01-10T12:37:37;15.47;;;11.70;;
50281;SDS011;36176;51.506;10.272;2024-01-10T12:40:04;15.37;;;11.50;;
50281;SDS011;36176;51.506;10.272;2024-01-10T12:42:37;13.57;;;10.50;;
50281;SDS011;36176;51.506;10.272;2024-01-10T12:45:04;15.93;;;11.43;;
50281;SDS011;36176;51.506;10.272;2024-01-10T12:47:32;14.07;;;10.97;;
50281;SDS011;36176;51.506;10.272;2024-01-10T12:50:02;14.10;;;10.70;;
50281;SDS011;36176;51.506;10.272;2024-01-10T12:52:29;15.23;;;11.40;;
50281;SDS011;36176;51.506;10.272;2024-01-10T12:54:56;13.47;;;10.60;;
50281;SDS011;36176;51.506;10.272;2024-01-10T12:57:23;15.77;;;11.57;;
50281;SDS011;36176;51.506;10.272;2024-01-10T12:59:51;14.83;;;11.30;;
50281;SDS011;36176;51.506;10.272;2024-01-10T13:02:18;15.73;;;11.73;;
50281;SDS011;36176;51.506;10.272;2024-01-10T13:04:45;16.53;;;12.00;;
50281;SDS011;36176;51.506;10.272;2024-01-10T13:07:13;15.27;;;11.90;;
50281;SDS011;36176;51.506;10.272;2024-01-10T13:09:40;16.83;;;12.30;;
50281;SDS011;36176;51.506;10.272;2024-01-10T13:12:07;18.47;;;12.53;;
50281;SDS011;36176;51.506;10.272;2024-01-10T13:14:35;16.93;;;12.80;;
50281;SDS011;36176;51.506;10.272;2024-01-10T13:17:02;18.73;;;12.70;;
50281;SDS011;36176;51.506;10.272;2024-01-10T13:19:30;17.20;;;12.67;;
50281;SDS011;36176;51.506;10.272;2024-01-10T13:21:57;16.60;;;12.17;;
50281;SDS011;36176;51.506;10.272;2024-01-10T13:24:25;15.67;;;11.33;;
50281;SDS011;36176;51.506;10.272;2024-01-10T13:26:52;15.73;;;10.73;;
50281;SDS011;36176;51.506;10.272;2024-01-10T13:29:19;14.93;;;10.30;;
50281;SDS011;36176;51.506;10.272;2024-01-10T13:31:46;13.80;;;9.90;;
50281;SDS011;36176;51.506;10.272;2024-01-10T13:34:14;14.37;;;9.97;;
50281;SDS011;36176;51.506;10.272;2024-01-10T13:36:41;13.40;;;10.17;;
50281;SDS011;36176;51.506;10.272;2024-01-10T13:39:08;15.20;;;10.47;;
50281;SDS011;36176;51.506;10.272;2024-01-10T13:41:36;14.73;;;10.83;;
50281;SDS011;36176;51.506;10.272;2024-01-10T13:44:03;14.37;;;11.10;;
50281;SDS011;36176;51.506;10.272;2024-01-10T13:46:30;14.10;;;10.60;;
50281;SDS011;36176;51.506;10.272;2024-01-10T13:48:57;15.90;;;11.27;;
50281;SDS011;36176;51.506;10.272;2024-01-10T13:51:25;15.30;;;11.30;;
50281;SDS011;36176;51.506;10.272;2024-01-10T13:53:52;15.97;;;11.47;;
50281;SDS011;36176;51.506;10.272;2024-01-10T13:56:19;15.83;;;11.67;;
50281;SDS011;36176;51.506;10.272;2024-01-10T13:58:47;16.47;;;11.53;;
50281;SDS011;36176;51.506;10.272;2024-01-10T14:01:14;16.60;;;12.40;;
50281;SDS011;36176;51.506;10.272;2024-01-10T14:03:41;25.60;;;17.43;;
50281;SDS011;36176;51.506;10.272;2024-01-10T14:06:08;26.47;;;20.13;;
50281;SDS011;36176;51.506;10.272;2024-01-10T14:08:36;26.37;;;19.50;;
50281;SDS011;36176;51.506;10.272;2024-01-10T14:11:03;25.73;;;19.03;;
50281;SDS011;36176;51.506;10.272;2024-01-10T14:13:30;28.20;;;19.40;;
50281;SDS011;36176;51.506;10.272;2024-01-10T14:15:58;27.63;;;21.17;;
50281;SDS011;36176;51.506;10.272;2024-01-10T14:18:25;38.07;;;28.50;;
50281;SDS011;36176;51.506;10.272;2024-01-10T14:20:52;27.63;;;19.83;;